Time;durP1;ratioP1;P1;durP2;ratioP2;P2;SDS_P1;SDS_P2;PMS_P1;PMS_P2;Temp;Humidity;BMP_temperature;BMP_pressure;BME280_temperature;BME280_humidity;BME280_pressure;Samples;Min_cycle;Max_cycle;Signal;HPM_P1;HPM_P2
2021/05/30 00:02:18;;;;;;;6.20;3.60;;;16.00;74.80;;;;;;5092179;28;20074;-64
2021/05/30 00:04:44;;;;;;;7.22;3.45;;;15.90;74.80;;;;;;5072676;28;20032;-63
2021/05/30 00:07:10;;;;;;;6.32;3.58;;;15.90;74.80;;;;;;5091884;28;20111;-64
2021/05/30 00:09:39;;;;;;;7.13;3.83;;;16.00;75.00;;;;;;5092297;28;20062;-63
2021/05/30 00:12:07;;;;;;;5.65;3.28;;;16.00;75.00;;;;;;5074109;28;20077;-64
2021/05/30 00:14:32;;;;;;;5.43;3.47;;;15.90;75.00;;;;;;5091363;28;20024;-66
2021/05/30 00:16:58;;;;;;;6.15;3.60;;;15.90;75.00;;;;;;5073101;28;20096;-63
2021/05/30 00:19:24;;;;;;;8.02;3.55;;;15.90;75.00;;;;;;5092277;28;20024;-64
2021/05/30 00:21:49;;;;;;;7.70;3.50;;;15.90;75.10;;;;;;5091864;28;20024;-64
2021/05/30 00:24:15;;;;;;;7.28;3.63;;;15.90;75.10;;;;;;5091614;28;20417;-63
2021/05/30 00:26:40;;;;;;;7.20;4.00;;;15.90;75.20;;;;;;5092070;28;20024;-63
2021/05/30 00:29:06;;;;;;;6.03;3.53;;;15.90;75.10;;;;;;5091563;28;20059;-64
2021/05/30 00:31:32;;;;;;;8.43;4.05;;;15.90;75.10;;;;;;5091339;28;20103;-66
2021/05/30 00:33:57;;;;;;;6.72;3.50;;;15.90;75.20;;;;;;5090935;28;20024;-63
2021/05/30 00:36:23;;;;;;;6.03;3.50;;;15.90;75.20;;;;;;5091776;28;20021;-63
2021/05/30 00:38:48;;;;;;;6.38;3.45;;;15.90;75.20;;;;;;5091718;28;20081;-64
2021/05/30 00:41:14;;;;;;;6.60;3.38;;;15.90;75.20;;;;;;5091707;28;20035;-63
2021/05/30 00:43:47;;;;;;;7.28;3.58;;;15.80;75.20;;;;;;5091158;28;20200;-64
2021/05/30 00:46:13;;;;;;;7.10;3.92;;;15.80;75.20;;;;;;5091302;28;20050;-64
2021/05/30 00:48:39;;;;;;;8.18;3.67;;;15.80;75.20;;;;;;5091462;28;20036;-64
2021/05/30 00:51:05;;;;;;;5.95;3.83;;;15.80;75.20;;;;;;5071879;28;20024;-65
2021/05/30 00:53:32;;;;;;;8.15;3.75;;;15.80;75.30;;;;;;5090313;28;20032;-64
2021/05/30 00:55:57;;;;;;;6.28;3.85;;;15.80;75.30;;;;;;5091350;28;20035;-63
2021/05/30 00:58:24;;;;;;;6.63;3.70;;;15.80;75.40;;;;;;5091659;28;20028;-66
2021/05/30 01:00:50;;;;;;;7.30;3.85;;;15.80;75.50;;;;;;5071867;28;20024;-65
2021/05/30 01:03:16;;;;;;;9.15;3.90;;;15.70;75.40;;;;;;5091047;28;20412;-66
2021/05/30 01:05:41;;;;;;;5.72;3.20;;;15.70;75.50;;;;;;5090780;28;20047;-66
2021/05/30 01:08:09;;;;;;;6.70;3.78;;;15.70;75.50;;;;;;5091467;28;20038;-63
2021/05/30 01:10:42;;;;;;;6.05;3.55;;;15.70;75.60;;;;;;5091335;28;20032;-64
2021/05/30 01:13:08;;;;;;;6.75;3.58;;;15.70;75.70;;;;;;5091346;28;20024;-64
2021/05/30 01:15:34;;;;;;;6.50;3.55;;;15.70;75.70;;;;;;5092014;28;20136;-65
2021/05/30 01:18:01;;;;;;;7.10;3.30;;;15.70;75.70;;;;;;5077039;28;20111;-66
2021/05/30 01:20:26;;;;;;;7.47;3.47;;;15.70;75.80;;;;;;5095451;28;20052;-64
2021/05/30 01:22:52;;;;;;;6.78;3.65;;;15.70;75.80;;;;;;5077008;28;20422;-63
2021/05/30 01:25:20;;;;;;;7.38;3.80;;;15.70;75.90;;;;;;5094884;28;20474;-63
2021/05/30 01:27:47;;;;;;;6.90;3.80;;;15.70;76.00;;;;;;5077052;28;20034;-63
2021/05/30 01:30:15;;;;;;;6.47;3.40;;;15.60;75.90;;;;;;5095250;28;20550;-63
2021/05/30 01:32:41;;;;;;;6.00;3.50;;;15.60;75.90;;;;;;5076724;28;20036;-64
2021/05/30 01:35:08;;;;;;;7.95;4.03;;;15.70;75.90;;;;;;5094791;28;20071;-64
2021/05/30 01:37:33;;;;;;;5.50;3.58;;;15.70;76.00;;;;;;5094881;28;20024;-65
2021/05/30 01:39:59;;;;;;;6.75;3.70;;;15.60;76.00;;;;;;5090181;28;20385;-63
2021/05/30 01:42:24;;;;;;;6.03;3.33;;;15.60;76.00;;;;;;5075027;28;20113;-63
2021/05/30 01:44:50;;;;;;;6.93;3.83;;;15.60;76.00;;;;;;5094739;28;20046;-64
2021/05/30 01:47:15;;;;;;;8.20;4.10;;;15.60;76.00;;;;;;5076389;28;20028;-65
2021/05/30 01:49:41;;;;;;;6.10;3.67;;;15.60;76.10;;;;;;5095111;28;20035;-64
2021/05/30 01:52:08;;;;;;;6.55;3.90;;;15.60;76.10;;;;;;5082771;28;20108;-64
2021/05/30 01:54:35;;;;;;;6.57;3.53;;;15.60;76.20;;;;;;5091981;28;20028;-64
2021/05/30 01:57:05;;;;;;;6.43;3.90;;;15.60;76.20;;;;;;5094130;28;20023;-63
2021/05/30 01:59:30;;;;;;;7.38;4.15;;;15.60;76.30;;;;;;5094693;28;20485;-63
2021/05/30 02:01:58;;;;;;;7.45;3.65;;;15.50;76.30;;;;;;5094832;28;20085;-63
2021/05/30 02:04:30;;;;;;;6.72;3.45;;;15.50;76.30;;;;;;5075745;28;20036;-64
2021/05/30 02:06:57;;;;;;;6.55;3.90;;;15.50;76.30;;;;;;5075965;28;20055;-64
2021/05/30 02:09:22;;;;;;;6.72;4.00;;;15.50;76.50;;;;;;5094471;28;20044;-63
2021/05/30 02:11:48;;;;;;;5.80;3.40;;;15.50;76.70;;;;;;5072067;28;20035;-64
2021/05/30 02:14:15;;;;;;;6.63;3.70;;;15.50;76.70;;;;;;5074851;28;20030;-62
2021/05/30 02:16:42;;;;;;;6.65;3.95;;;15.50;76.60;;;;;;5093900;28;20557;-64
2021/05/30 02:19:08;;;;;;;6.20;3.60;;;15.50;76.60;;;;;;5094263;28;20432;-65
2021/05/30 02:21:51;;;;;;;6.75;3.80;;;15.50;76.50;;;;;;5075458;28;20024;-63
2021/05/30 02:24:19;;;;;;;6.80;4.10;;;15.50;76.50;;;;;;5093785;28;20454;-64
2021/05/30 02:26:45;;;;;;;6.40;3.90;;;15.50;76.50;;;;;;5093283;28;20036;-63
2021/05/30 02:29:17;;;;;;;9.18;4.18;;;15.50;76.50;;;;;;5094141;28;20485;-65
2021/05/30 02:31:43;;;;;;;7.28;3.42;;;15.50;76.60;;;;;;5094357;28;20538;-64
2021/05/30 02:34:08;;;;;;;6.82;3.88;;;15.50;76.60;;;;;;5075200;28;20032;-63
2021/05/30 02:36:34;;;;;;;7.15;3.95;;;15.50;76.60;;;;;;5075792;28;20022;-65
2021/05/30 02:38:59;;;;;;;6.47;3.58;;;15.50;76.70;;;;;;5075862;28;20042;-63
2021/05/30 02:41:25;;;;;;;6.15;3.88;;;15.50;76.70;;;;;;5093657;28;20057;-64
2021/05/30 02:43:51;;;;;;;7.25;4.28;;;15.50;76.70;;;;;;5075206;28;20028;-65
2021/05/30 02:46:16;;;;;;;6.70;3.70;;;15.40;76.70;;;;;;5075729;28;20027;-64
2021/05/30 02:48:42;;;;;;;7.93;4.13;;;15.40;76.80;;;;;;5093547;28;20031;-64
2021/05/30 02:51:08;;;;;;;6.95;3.78;;;15.40;76.70;;;;;;5093445;28;20032;-65
2021/05/30 02:53:34;;;;;;;7.43;3.92;;;15.40;76.70;;;;;;5074662;28;20032;-64
2021/05/30 02:56:03;;;;;;;6.60;4.20;;;15.40;76.70;;;;;;5093409;28;20024;-65
2021/05/30 02:58:29;;;;;;;6.35;3.97;;;15.40;76.90;;;;;;5093626;28;20039;-64
2021/05/30 03:00:56;;;;;;;10.77;4.28;;;15.40;77.00;;;;;;5093329;28;20020;-63
2021/05/30 03:03:22;;;;;;;5.68;3.75;;;15.40;77.10;;;;;;5075219;28;20047;-62
2021/05/30 03:05:47;;;;;;;6.95;4.03;;;15.40;77.00;;;;;;5093384;28;20036;-64
2021/05/30 03:08:13;;;;;;;6.47;3.90;;;15.40;77.00;;;;;;5093071;28;20032;-63
2021/05/30 03:10:39;;;;;;;7.03;4.10;;;15.40;77.60;;;;;;5092994;28;20020;-63
2021/05/30 03:13:04;;;;;;;6.55;3.95;;;15.40;77.10;;;;;;5093162;28;20554;-64
2021/05/30 03:15:30;;;;;;;8.00;4.32;;;15.40;77.10;;;;;;5074604;28;20032;-63
2021/05/30 03:17:56;;;;;;;7.53;3.97;;;15.40;77.10;;;;;;5074825;28;20074;-63
2021/05/30 03:20:22;;;;;;;7.35;4.20;;;15.30;77.00;;;;;;5093111;28;20024;-64
2021/05/30 03:22:47;;;;;;;7.93;4.28;;;15.40;77.00;;;;;;5092581;28;20099;-64
2021/05/30 03:25:14;;;;;;;7.75;4.07;;;15.30;76.90;;;;;;5074664;28;20027;-63
2021/05/30 03:27:39;;;;;;;6.90;4.05;;;15.30;77.10;;;;;;5074968;28;20123;-64
2021/05/30 03:30:06;;;;;;;6.50;3.85;;;15.30;77.00;;;;;;5093182;28;20465;-65
2021/05/30 03:32:32;;;;;;;7.18;3.97;;;15.30;77.00;;;;;;5092123;28;20089;-62
2021/05/30 03:34:58;;;;;;;7.70;4.45;;;15.30;77.00;;;;;;5074229;28;20020;-63
2021/05/30 03:37:23;;;;;;;6.88;4.20;;;15.40;77.10;;;;;;5092983;28;20027;-65
2021/05/30 03:39:52;;;;;;;5.68;3.65;;;15.30;77.00;;;;;;5091626;28;20176;-63
2021/05/30 03:42:25;;;;;;;7.32;4.50;;;15.30;77.10;;;;;;5074528;28;20024;-64
2021/05/30 03:44:51;;;;;;;7.88;4.20;;;15.40;77.10;;;;;;5092545;28;20016;-63
2021/05/30 03:47:16;;;;;;;7.35;4.07;;;15.30;77.00;;;;;;5091843;28;20028;-67
2021/05/30 03:49:42;;;;;;;8.20;3.92;;;15.30;76.90;;;;;;5081835;28;20016;-65
2021/05/30 03:52:09;;;;;;;7.03;3.80;;;15.30;77.00;;;;;;5069590;28;20028;-62
2021/05/30 03:54:34;;;;;;;8.15;4.03;;;15.30;77.00;;;;;;5091919;28;20485;-66
2021/05/30 03:57:01;;;;;;;6.80;4.25;;;15.30;77.10;;;;;;5074267;28;20036;-64
2021/05/30 03:59:26;;;;;;;7.38;4.32;;;15.30;77.10;;;;;;5073769;28;20582;-63
2021/05/30 04:01:52;;;;;;;6.90;4.15;;;15.30;77.10;;;;;;5091960;28;20033;-63
2021/05/30 04:04:17;;;;;;;6.80;3.92;;;15.30;77.30;;;;;;5091549;28;20461;-63
2021/05/30 04:06:43;;;;;;;7.55;3.88;;;15.30;77.20;;;;;;5092355;28;20046;-65
2021/05/30 04:09:08;;;;;;;6.30;4.07;;;15.30;77.10;;;;;;5091812;28;20679;-63
2021/05/30 04:11:34;;;;;;;6.38;3.90;;;15.30;77.20;;;;;;5090810;28;20020;-63
2021/05/30 04:13:59;;;;;;;7.63;4.38;;;15.30;77.10;;;;;;5090536;28;20497;-66
2021/05/30 04:16:25;;;;;;;7.70;4.78;;;15.30;77.70;;;;;;5073581;28;20051;-63
2021/05/30 04:18:51;;;;;;;7.72;4.50;;;15.30;77.20;;;;;;5091692;28;20036;-63
2021/05/30 04:21:17;;;;;;;8.18;4.10;;;15.30;77.10;;;;;;5073085;28;20031;-63
2021/05/30 04:23:42;;;;;;;7.25;4.18;;;15.30;77.00;;;;;;5071799;28;20156;-64
2021/05/30 04:26:08;;;;;;;7.85;4.35;;;15.30;77.00;;;;;;5072969;28;20500;-63
2021/05/30 04:28:33;;;;;;;6.88;4.38;;;15.30;77.00;;;;;;5091426;28;20028;-63
2021/05/30 04:30:59;;;;;;;6.75;4.18;;;15.30;77.00;;;;;;5092047;28;20020;-64
2021/05/30 04:33:24;;;;;;;7.10;4.57;;;15.30;77.00;;;;;;5091299;28;20032;-64
2021/05/30 04:35:50;;;;;;;7.97;4.22;;;15.40;77.00;;;;;;5073312;28;20404;-63
2021/05/30 04:38:18;;;;;;;7.05;4.10;;;15.30;76.90;;;;;;5091488;28;20040;-63
2021/05/30 04:40:44;;;;;;;7.18;4.68;;;15.40;76.90;;;;;;5091649;28;20107;-63
2021/05/30 04:43:09;;;;;;;7.55;4.20;;;15.40;76.90;;;;;;5090915;28;20036;-63
2021/05/30 04:45:35;;;;;;;6.63;4.28;;;15.40;76.80;;;;;;5091499;28;20032;-66
2021/05/30 04:48:00;;;;;;;8.38;4.40;;;15.40;76.60;;;;;;5090904;28;20043;-64
2021/05/30 04:50:26;;;;;;;7.65;4.70;;;15.40;76.60;;;;;;5090903;28;20036;-64
2021/05/30 04:52:52;;;;;;;9.75;4.47;;;15.40;76.50;;;;;;5090968;28;20020;-64
2021/05/30 04:55:17;;;;;;;6.72;4.50;;;15.40;76.70;;;;;;5091188;28;20115;-64
2021/05/30 04:57:45;;;;;;;7.75;4.25;;;15.50;76.70;;;;;;5091380;28;20111;-65
2021/05/30 05:00:12;;;;;;;8.65;4.38;;;15.50;76.60;;;;;;5091509;28;20806;-63
2021/05/30 05:02:38;;;;;;;7.78;4.60;;;15.40;76.50;;;;;;5090697;28;20024;-64
2021/05/30 05:05:04;;;;;;;6.57;4.25;;;15.40;76.40;;;;;;5091079;28;20379;-63
2021/05/30 05:07:30;;;;;;;7.47;4.40;;;15.50;76.40;;;;;;5091040;28;20045;-63
2021/05/30 05:09:55;;;;;;;7.47;4.35;;;15.50;76.40;;;;;;5071962;28;20032;-64
2021/05/30 05:12:21;;;;;;;7.43;4.68;;;15.50;76.30;;;;;;5090898;28;20044;-65
2021/05/30 05:14:46;;;;;;;6.53;4.20;;;15.50;76.30;;;;;;5090988;28;20024;-64
2021/05/30 05:17:12;;;;;;;7.88;4.25;;;15.50;76.20;;;;;;5091583;28;20024;-63
2021/05/30 05:19:37;;;;;;;6.50;4.10;;;15.50;76.00;;;;;;5090764;28;20441;-64
2021/05/30 05:22:03;;;;;;;7.07;4.55;;;15.50;75.90;;;;;;5072320;28;20051;-64
2021/05/30 05:24:29;;;;;;;8.30;4.28;;;15.60;76.00;;;;;;5091073;28;20574;-63
2021/05/30 05:26:54;;;;;;;6.57;4.28;;;15.60;76.00;;;;;;5072961;28;20114;-64
2021/05/30 05:29:20;;;;;;;7.18;4.40;;;15.60;76.00;;;;;;5091322;28;20066;-64
2021/05/30 05:31:45;;;;;;;6.10;3.90;;;15.60;76.00;;;;;;5072849;28;20031;-65
2021/05/30 05:34:11;;;;;;;6.53;4.00;;;15.60;75.90;;;;;;5090420;28;20032;-64
2021/05/30 05:36:36;;;;;;;6.72;4.43;;;15.60;75.70;;;;;;5090990;28;20044;-63
2021/05/30 05:39:03;;;;;;;6.93;4.10;;;15.60;75.60;;;;;;5073044;28;20024;-65
2021/05/30 05:41:29;;;;;;;8.25;4.15;;;15.70;75.40;;;;;;5090874;28;20549;-63
2021/05/30 05:43:55;;;;;;;6.88;4.20;;;15.70;75.00;;;;;;5090590;28;20440;-64
2021/05/30 05:46:20;;;;;;;6.60;4.22;;;15.80;74.90;;;;;;5090686;28;20081;-63
2021/05/30 05:48:46;;;;;;;6.55;3.67;;;15.90;74.60;;;;;;5090877;28;20153;-63
2021/05/30 05:51:11;;;;;;;6.38;3.85;;;15.90;74.40;;;;;;5090739;28;20032;-64
2021/05/30 05:53:37;;;;;;;7.20;3.78;;;16.00;74.20;;;;;;5104691;22;20052;-67
2021/05/30 05:56:03;;;;;;;7.30;3.85;;;16.00;73.80;;;;;;5090764;28;20110;-70
2021/05/30 05:58:28;;;;;;;6.53;3.85;;;16.10;73.80;;;;;;5091907;28;20099;-67
2021/05/30 06:00:54;;;;;;;6.35;4.05;;;16.20;73.70;;;;;;5100846;28;20020;-68
2021/05/30 06:03:19;;;;;;;7.03;4.05;;;16.20;73.20;;;;;;5101330;28;20039;-69
2021/05/30 06:05:45;;;;;;;6.50;3.90;;;16.30;73.30;;;;;;5095700;28;20028;-67
2021/05/30 06:08:10;;;;;;;6.28;3.63;;;16.40;73.40;;;;;;5076528;28;20059;-68
2021/05/30 06:10:36;;;;;;;6.30;3.58;;;16.40;72.80;;;;;;5094611;28;20027;-69
2021/05/30 06:13:09;;;;;;;6.60;3.85;;;16.50;72.60;;;;;;5077238;28;20062;-69
2021/05/30 06:15:35;;;;;;;5.25;3.40;;;16.60;72.70;;;;;;5094446;28;20050;-69
2021/05/30 06:18:07;;;;;;;6.60;3.60;;;16.70;72.40;;;;;;5094644;28;20481;-66
2021/05/30 06:20:34;;;;;;;6.03;3.65;;;16.80;72.10;;;;;;5077597;28;20055;-68
2021/05/30 06:22:59;;;;;;;9.80;3.95;;;16.90;72.00;;;;;;5069535;28;20584;-68
2021/05/30 06:25:28;;;;;;;6.65;3.80;;;16.90;71.60;;;;;;5074009;28;20115;-67
2021/05/30 06:27:57;;;;;;;7.10;3.50;;;17.00;71.40;;;;;;5056060;28;20032;-68
2021/05/30 06:30:25;;;;;;;7.50;3.70;;;17.20;71.10;;;;;;5075654;28;20042;-67
2021/05/30 06:32:50;;;;;;;7.07;3.58;;;17.30;71.00;;;;;;5084019;28;20040;-68
2021/05/30 06:35:16;;;;;;;6.95;3.65;;;17.40;70.90;;;;;;5085916;28;20081;-67
2021/05/30 06:37:42;;;;;;;5.57;3.40;;;17.50;71.00;;;;;;5085342;28;20069;-68
2021/05/30 06:40:08;;;;;;;6.40;3.28;;;17.60;71.30;;;;;;5069629;28;20485;-68
2021/05/30 06:42:33;;;;;;;7.20;3.72;;;17.70;71.00;;;;;;5067473;28;20033;-71
2021/05/30 06:44:59;;;;;;;7.97;3.67;;;17.80;71.10;;;;;;5060330;28;20485;-68
2021/05/30 06:47:24;;;;;;;6.03;3.65;;;17.80;70.50;;;;;;5070710;28;20397;-68
2021/05/30 06:49:50;;;;;;;6.90;3.22;;;17.90;70.10;;;;;;5087610;28;20393;-67
2021/05/30 06:52:15;;;;;;;7.72;3.65;;;18.00;70.20;;;;;;5068742;28;20039;-70
2021/05/30 06:54:41;;;;;;;6.10;3.40;;;18.10;69.80;;;;;;5077601;28;20172;-67
2021/05/30 06:57:07;;;;;;;6.97;3.95;;;18.10;69.30;;;;;;5076598;28;20475;-71
2021/05/30 06:59:32;;;;;;;7.60;3.80;;;18.20;69.20;;;;;;5084882;28;20028;-67
2021/05/30 07:01:58;;;;;;;9.00;4.30;;;18.30;68.50;;;;;;5084607;28;20028;-67
2021/05/30 07:04:26;;;;;;;9.45;3.90;;;18.40;67.40;;;;;;5065317;28;20031;-67
2021/05/30 07:06:52;;;;;;;11.25;4.15;;;18.50;67.10;;;;;;5067037;28;20056;-72
2021/05/30 07:09:17;;;;;;;10.48;6.10;;;18.50;66.80;;;;;;5084974;28;20507;-66
2021/05/30 07:11:43;;;;;;;9.10;5.78;;;18.60;67.20;;;;;;5077063;28;20476;-69
2021/05/30 07:14:09;;;;;;;13.45;6.05;;;18.70;66.90;;;;;;5066545;28;20039;-69
2021/05/30 07:16:34;;;;;;;10.98;5.72;;;18.70;67.10;;;;;;5084040;28;20465;-70
2021/05/30 07:19:00;;;;;;;9.95;4.70;;;18.80;66.70;;;;;;5084401;28;20016;-68
2021/05/30 07:21:25;;;;;;;8.77;4.90;;;18.90;66.30;;;;;;5085589;28;20101;-69
2021/05/30 07:23:51;;;;;;;9.70;4.60;;;19.00;66.00;;;;;;5084468;28;20023;-67
2021/05/30 07:26:16;;;;;;;10.45;4.55;;;19.00;65.80;;;;;;5058814;28;20027;-68
2021/05/30 07:28:44;;;;;;;9.27;5.50;;;19.00;65.30;;;;;;5067637;28;20941;-68
2021/05/30 07:31:10;;;;;;;12.05;5.85;;;19.10;65.20;;;;;;5086393;28;20084;-68
2021/05/30 07:33:36;;;;;;;9.45;6.40;;;19.20;64.80;;;;;;5086380;28;20428;-70
2021/05/30 07:36:02;;;;;;;9.80;6.10;;;19.20;64.70;;;;;;5094093;28;20031;-68
2021/05/30 07:38:27;;;;;;;11.15;6.90;;;19.30;64.60;;;;;;5079707;28;20473;-69
2021/05/30 07:40:53;;;;;;;12.18;6.60;;;19.30;64.10;;;;;;5085421;28;20016;-67
2021/05/30 07:43:18;;;;;;;12.50;7.15;;;19.40;63.90;;;;;;5107660;28;20481;-68
2021/05/30 07:45:44;;;;;;;12.10;7.40;;;19.40;62.30;;;;;;5088771;28;20088;-66
2021/05/30 07:48:09;;;;;;;13.18;7.50;;;19.50;63.20;;;;;;5082903;28;20758;-67
2021/05/30 07:50:35;;;;;;;13.05;6.82;;;19.60;62.70;;;;;;5068345;28;20626;-68
2021/05/30 07:53:02;;;;;;;14.98;7.63;;;19.60;62.00;;;;;;5066375;28;20036;-69
2021/05/30 07:55:28;;;;;;;12.02;6.97;;;19.70;62.60;;;;;;5085573;28;20396;-68
2021/05/30 07:57:53;;;;;;;11.15;7.30;;;19.80;62.10;;;;;;5083732;28;20016;-68
2021/05/30 08:00:19;;;;;;;16.88;12.57;;;19.80;62.00;;;;;;5062242;28;20028;-69
2021/05/30 08:02:46;;;;;;;19.27;14.30;;;19.90;61.50;;;;;;5067154;28;20036;-69
2021/05/30 08:05:16;;;;;;;23.95;18.05;;;19.90;61.40;;;;;;5079399;28;20103;-67
2021/05/30 08:07:42;;;;;;;23.73;15.70;;;19.90;61.40;;;;;;5078854;28;20028;-73
2021/05/30 08:10:08;;;;;;;20.23;14.00;;;20.00;61.60;;;;;;5056493;28;20041;-72
2021/05/30 08:12:34;;;;;;;15.70;11.65;;;20.10;61.90;;;;;;5046876;28;20020;-69
2021/05/30 08:14:59;;;;;;;19.25;10.82;;;20.20;61.20;;;;;;5047522;28;20032;-73
2021/05/30 08:17:25;;;;;;;16.40;11.15;;;20.20;60.60;;;;;;5066185;28;20024;-73
2021/05/30 08:19:50;;;;;;;14.60;9.77;;;20.40;60.40;;;;;;5071767;28;20128;-70
2021/05/30 08:22:16;;;;;;;12.48;8.68;;;20.50;60.10;;;;;;5085688;28;20084;-73
2021/05/30 08:24:44;;;;;;;12.23;9.10;;;20.50;58.00;;;;;;5084838;28;20028;-72
2021/05/30 08:27:10;;;;;;;10.68;8.35;;;20.40;58.40;;;;;;5085272;28;20496;-72
2021/05/30 08:29:36;;;;;;;11.80;8.40;;;20.50;59.60;;;;;;5085658;28;20084;-73
2021/05/30 08:32:03;;;;;;;12.48;8.52;;;20.60;58.90;;;;;;5085747;28;20060;-74
2021/05/30 08:34:29;;;;;;;12.50;8.65;;;20.60;59.20;;;;;;5085341;28;20024;-68
2021/05/30 08:36:55;;;;;;;15.57;8.60;;;20.60;59.50;;;;;;5085412;28;20064;-69
2021/05/30 08:39:21;;;;;;;15.88;9.07;;;20.70;59.50;;;;;;5080609;28;20024;-67
2021/05/30 08:41:47;;;;;;;15.10;9.02;;;20.70;58.90;;;;;;5055398;28;20028;-77
2021/05/30 08:44:12;;;;;;;13.63;8.73;;;20.80;58.60;;;;;;5058977;28;20478;-67
2021/05/30 08:46:39;;;;;;;15.23;8.45;;;20.80;58.60;;;;;;5078247;28;20020;-73
2021/05/30 08:49:07;;;;;;;14.30;8.45;;;20.80;58.60;;;;;;5081309;28;20110;-68
2021/05/30 08:51:39;;;;;;;12.68;7.85;;;20.90;58.80;;;;;;5083903;28;20485;-68
2021/05/30 08:54:13;;;;;;;14.02;7.88;;;20.90;58.30;;;;;;5083651;28;20028;-68
2021/05/30 08:56:41;;;;;;;13.38;8.13;;;20.90;58.30;;;;;;5061586;28;20085;-67
2021/05/30 08:59:16;;;;;;;11.32;8.10;;;21.00;58.80;;;;;;5080785;28;20034;-67
2021/05/30 09:01:43;;;;;;;11.85;8.00;;;20.90;58.00;;;;;;5082498;28;20016;-71
2021/05/30 09:04:09;;;;;;;14.20;7.70;;;21.00;58.20;;;;;;5062856;28;20054;-69
2021/05/30 09:06:40;;;;;;;12.45;7.45;;;21.10;57.80;;;;;;5085611;28;20051;-68
2021/05/30 09:09:08;;;;;;;11.88;7.40;;;21.10;57.50;;;;;;5070622;28;20454;-68
2021/05/30 09:11:39;;;;;;;12.52;6.95;;;21.10;57.30;;;;;;5088598;28;20509;-68
2021/05/30 09:14:09;;;;;;;10.52;6.63;;;21.20;57.00;;;;;;5089319;28;20032;-68
2021/05/30 09:17:04;;;;;;;10.48;6.18;;;21.20;56.70;;;;;;5086195;28;20020;-67
2021/05/30 09:19:34;;;;;;;9.55;5.40;;;21.20;56.10;;;;;;5070517;28;20033;-68
2021/05/30 09:22:15;;;;;;;9.68;5.72;;;21.30;55.90;;;;;;5090571;28;20016;-68
2021/05/30 09:24:56;;;;;;;10.82;5.63;;;21.20;55.60;;;;;;5088069;28;20070;-67
2021/05/30 09:27:24;;;;;;;12.05;5.80;;;21.20;55.30;;;;;;5088748;28;20107;-67
2021/05/30 09:30:15;;;;;;;13.90;5.72;;;21.30;55.50;;;;;;5072768;28;20028;-67
2021/05/30 09:32:58;;;;;;;10.73;5.55;;;21.40;55.00;;;;;;5087911;28;20043;-68
2021/05/30 09:35:37;;;;;;;17.38;6.30;;;21.40;55.00;;;;;;5083662;28;20481;-70
2021/05/30 09:38:09;;;;;;;10.55;5.38;;;21.40;55.30;;;;;;5088286;28;20028;-67
2021/05/30 09:40:34;;;;;;;16.23;6.03;;;21.40;54.70;;;;;;5069620;28;20441;-68
2021/05/30 09:43:05;;;;;;;12.70;5.07;;;21.50;55.10;;;;;;5087538;28;20059;-68
2021/05/30 09:45:30;;;;;;;13.63;5.30;;;21.60;55.30;;;;;;5093170;28;20054;-68
2021/05/30 09:47:56;;;;;;;12.23;5.13;;;21.70;54.30;;;;;;5092241;28;20482;-68
2021/05/30 09:50:22;;;;;;;13.75;5.25;;;21.60;54.20;;;;;;5092926;28;20036;-68
2021/05/30 09:52:50;;;;;;;10.60;4.93;;;21.60;54.50;;;;;;5089433;28;20034;-69
2021/05/30 09:55:19;;;;;;;13.23;5.28;;;21.60;54.50;;;;;;5066327;28;20027;-69
2021/05/30 09:58:06;;;;;;;13.68;4.88;;;21.60;54.10;;;;;;5083056;28;20027;-69
2021/05/30 10:00:31;;;;;;;10.07;4.70;;;21.70;54.10;;;;;;5084157;28;20477;-69
2021/05/30 10:02:57;;;;;;;10.68;5.07;;;21.70;54.20;;;;;;5093714;28;20032;-70
2021/05/30 10:05:23;;;;;;;9.98;4.90;;;21.70;54.00;;;;;;5093723;28;20017;-68
2021/05/30 10:07:49;;;;;;;10.18;4.60;;;21.70;54.00;;;;;;5094741;28;20108;-68
2021/05/30 10:10:16;;;;;;;8.93;4.50;;;21.70;53.80;;;;;;5094142;28;20089;-69
2021/05/30 10:12:43;;;;;;;8.43;4.25;;;21.70;54.00;;;;;;5094185;28;20032;-68
2021/05/30 10:15:10;;;;;;;10.85;4.88;;;21.80;53.90;;;;;;5093615;28;20016;-68
2021/05/30 10:17:37;;;;;;;10.68;4.93;;;21.80;53.60;;;;;;5075101;28;20020;-68
2021/05/30 10:20:06;;;;;;;9.35;4.53;;;21.80;53.90;;;;;;5093422;28;20028;-69
2021/05/30 10:22:32;;;;;;;11.75;5.13;;;21.90;53.50;;;;;;5098309;28;20028;-68
2021/05/30 10:24:58;;;;;;;24.48;5.65;;;21.90;53.30;;;;;;5053812;28;20021;-68
2021/05/30 10:27:26;;;;;;;33.50;7.10;;;22.00;53.50;;;;;;5053152;28;20521;-68
2021/05/30 10:30:07;;;;;;;33.35;6.93;;;22.00;53.00;;;;;;5071410;28;20103;-68
2021/05/30 10:32:33;;;;;;;;;;;22.00;53.00;;;;;;5077442;28;20508;-70
2021/05/30 10:35:09;;;;;;;30.00;6.95;;;22.10;53.20;;;;;;5094728;28;19910;-68
2021/05/30 10:37:49;;;;;;;30.63;7.13;;;22.10;53.20;;;;;;5108781;28;20052;-69
2021/05/30 10:40:21;;;;;;;50.40;8.97;;;22.20;53.10;;;;;;5095924;28;20027;-68
2021/05/30 10:43:12;;;;;;;50.03;9.63;;;22.20;52.80;;;;;;5113895;28;20030;-67
2021/05/30 10:45:47;;;;;;;52.78;8.55;;;22.20;52.50;;;;;;5103841;28;20028;-69
2021/05/30 10:48:13;;;;;;;41.55;8.07;;;22.20;52.60;;;;;;5096004;28;20028;-68
2021/05/30 10:51:11;;;;;;;39.90;7.03;;;22.20;52.50;;;;;;5093031;28;20051;-69
2021/05/30 10:53:38;;;;;;;29.92;7.07;;;22.20;52.60;;;;;;5092780;28;20061;-69
2021/05/30 10:56:15;;;;;;;39.20;7.90;;;22.20;52.50;;;;;;5105164;28;20085;-67
2021/05/30 10:58:43;;;;;;;25.45;6.65;;;22.20;52.50;;;;;;5093160;28;20031;-67
2021/05/30 11:01:33;;;;;;;26.05;6.28;;;22.20;52.70;;;;;;5075107;28;20094;-70
2021/05/30 11:04:23;;;;;;;32.65;6.32;;;22.10;52.70;;;;;;5092782;28;20103;-68
2021/05/30 11:07:10;;;;;;;37.42;7.28;;;22.20;52.60;;;;;;5075126;28;20054;-68
2021/05/30 11:09:52;;;;;;;37.65;6.72;;;22.10;52.70;;;;;;5078682;28;20415;-67
2021/05/30 11:12:28;;;;;;;30.55;6.50;;;22.10;52.70;;;;;;5093016;28;20052;-67
2021/05/30 11:15:09;;;;;;;31.10;6.80;;;22.10;52.70;;;;;;5074287;28;20481;-68
2021/05/30 11:17:39;;;;;;;27.90;5.90;;;22.10;52.70;;;;;;5093015;28;20107;-67
2021/05/30 11:20:10;;;;;;;30.85;6.68;;;22.10;52.90;;;;;;5091944;28;20020;-68
2021/05/30 11:22:54;;;;;;;32.03;6.17;;;22.10;52.70;;;;;;5079269;28;20414;-68
2021/05/30 11:25:22;;;;;;;71.50;10.10;;;22.10;52.80;;;;;;5070816;28;20017;-68
2021/05/30 11:27:59;;;;;;;75.50;12.05;;;22.00;52.80;;;;;;5092154;28;20070;-69
2021/05/30 11:30:44;;;;;;;34.20;6.60;;;21.90;53.50;;;;;;5083030;28;20016;-69
2021/05/30 11:33:31;;;;;;;17.02;5.20;;;22.00;52.80;;;;;;5080293;28;20055;-69
2021/05/30 11:36:03;;;;;;;16.38;5.20;;;22.00;52.30;;;;;;5077757;28;20052;-69
2021/05/30 11:38:41;;;;;;;;;;;22.00;51.80;;;;;;5070538;28;20031;-68
2021/05/30 11:41:17;;;;;;;;;;;21.90;52.60;;;;;;5051970;28;19912;-70
2021/05/30 11:43:56;;;;;;;;;;;21.80;52.70;;;;;;5070474;28;19911;-69
2021/05/30 11:46:22;;;;;;;;;;;21.70;52.90;;;;;;5052237;28;19908;-68
2021/05/30 11:48:57;;;;;;;;;;;21.50;53.40;;;;;;5072272;28;20324;-68
2021/05/30 11:51:23;;;;;;;;;;;21.40;53.70;;;;;;5072858;28;19904;-69
2021/05/30 11:53:48;;;;;;;;;;;21.40;54.00;;;;;;5072522;28;19912;-68
2021/05/30 11:56:15;;;;;;;;;;;21.40;54.00;;;;;;5054111;28;20400;-69
2021/05/30 11:58:44;;;;;;;;;;;21.40;53.80;;;;;;5053806;28;19994;-69
2021/05/30 12:01:10;;;;;;;;;;;21.40;53.90;;;;;;5073937;28;19920;-68
2021/05/30 12:03:46;;;;;;;;;;;21.40;54.00;;;;;;5090851;28;19903;-70
2021/05/30 12:06:11;;;;;;;;;;;21.30;53.90;;;;;;5091876;28;19954;-69
2021/05/30 12:08:37;;;;;;;;;;;21.30;54.00;;;;;;5073354;28;19908;-68
2021/05/30 12:11:03;;;;;;;;;;;21.30;54.10;;;;;;5096654;28;19987;-69
2021/05/30 12:13:38;;;;;;;;;;;21.30;54.00;;;;;;5092970;28;20273;-68
2021/05/30 12:16:19;;;;;;;;;;;21.30;54.00;;;;;;5076637;28;20567;-69
2021/05/30 12:18:49;;;;;;;;;;;21.20;53.90;;;;;;5092217;28;20464;-68
2021/05/30 12:21:14;;;;;;;;;;;21.20;53.80;;;;;;5071242;28;19908;-68
2021/05/30 12:23:40;;;;;;;;;;;21.10;53.70;;;;;;5052418;28;19970;-69
2021/05/30 12:26:05;;;;;;;;;;;21.10;53.90;;;;;;5054265;28;19911;-68
2021/05/30 12:28:35;;;;;;;;;;;21.10;53.40;;;;;;5071998;28;20289;-68
2021/05/30 12:31:05;;;;;;;;;;;21.00;52.50;;;;;;5057634;28;19915;-67
2021/05/30 12:33:49;;;;;;;;;;;21.00;51.90;;;;;;5103862;28;19972;-67
2021/05/30 12:36:14;;;;;;;;;;;21.00;52.60;;;;;;5090584;28;19911;-68
2021/05/30 12:38:40;;;;;;;;;;;20.90;52.10;;;;;;5091020;28;19912;-68
2021/05/30 12:41:12;;;;;;;;;;;20.90;51.70;;;;;;5085969;28;19932;-69
2021/05/30 12:43:41;;;;;;;;;;;20.90;51.70;;;;;;5076667;28;19915;-69
2021/05/30 12:46:07;;;;;;;;;;;20.90;52.50;;;;;;5100953;28;19907;-69
2021/05/30 12:48:39;;;;;;;;;;;20.90;52.90;;;;;;5070438;28;19905;-68
2021/05/30 12:51:11;;;;;;;;;;;20.80;53.10;;;;;;5070130;28;19904;-67
2021/05/30 12:53:38;;;;;;;;;;;20.80;53.00;;;;;;5073389;28;20006;-67
2021/05/30 12:56:13;;;;;;;;;;;20.80;53.00;;;;;;5091976;28;19904;-67
2021/05/30 12:58:39;;;;;;;;;;;20.80;53.50;;;;;;5091708;28;20057;-67